Time;durP1;ratioP1;P1;durP2;ratioP2;P2;SDS_P1;SDS_P2;PMS_P1;PMS_P2;Temp;Humidity;BMP_temperature;BMP_pressure;BME280_temperature;BME280_humidity;BME280_pressure;Samples;Min_cycle;Max_cycle;Signal;HPM_P1;HPM_P2
2022/09/11 00:00:36;;;;;;;44.80;29.60;;;13.50;99.90;;;;;;5036175;28;20323;-87
2022/09/11 00:03:02;;;;;;;41.87;28.57;;;13.50;99.90;;;;;;5019811;28;20591;-85
2022/09/11 00:05:30;;;;;;;43.00;28.23;;;13.50;99.90;;;;;;5021972;28;20304;-84
2022/09/11 00:07:57;;;;;;;41.63;27.63;;;13.40;99.90;;;;;;5027764;28;20224;-86
2022/09/11 00:10:24;;;;;;;39.63;26.37;;;13.40;99.90;;;;;;5023901;28;20217;-86
2022/09/11 00:12:51;;;;;;;36.93;26.03;;;13.30;99.90;;;;;;5018369;28;20226;-83
2022/09/11 00:15:18;;;;;;;39.77;27.33;;;13.30;99.90;;;;;;5016399;28;20272;-82
2022/09/11 00:17:44;;;;;;;40.17;28.67;;;13.30;99.90;;;;;;5018320;28;20222;-82
2022/09/11 00:20:11;;;;;;;51.57;31.07;;;13.20;99.90;;;;;;5026726;28;20235;-81
2022/09/11 00:22:39;;;;;;;41.60;28.80;;;13.20;99.90;;;;;;5020335;28;20219;-82
2022/09/11 00:25:06;;;;;;;41.07;29.00;;;13.20;99.90;;;;;;5021797;28;20302;-83
2022/09/11 00:27:33;;;;;;;48.13;30.73;;;13.20;99.90;;;;;;5026518;28;20222;-83
2022/09/11 00:30:00;;;;;;;52.70;30.40;;;13.20;99.90;;;;;;5021181;28;20227;-84
2022/09/11 00:32:27;;;;;;;51.50;29.70;;;13.20;99.90;;;;;;5021911;28;20343;-84
2022/09/11 00:34:54;;;;;;;51.67;28.50;;;13.20;99.90;;;;;;5024183;28;20242;-84
2022/09/11 00:37:21;;;;;;;75.00;32.10;;;13.20;99.90;;;;;;5013091;28;20247;-85
2022/09/11 00:39:49;;;;;;;112.73;31.97;;;13.20;99.90;;;;;;5018499;28;20226;-83
2022/09/11 00:42:15;;;;;;;128.83;34.90;;;13.20;99.90;;;;;;5017910;28;20226;-83
2022/09/11 00:45:00;;;;;;;122.97;32.23;;;13.20;99.90;;;;;;5023080;28;20591;-84
2022/09/11 00:47:28;;;;;;;99.37;31.17;;;13.30;99.90;;;;;;5009884;28;20225;-82
2022/09/11 00:50:00;;;;;;;81.47;29.30;;;13.30;99.90;;;;;;5033832;28;20239;-82
2022/09/11 00:52:30;;;;;;;48.53;26.77;;;13.30;99.90;;;;;;5018102;28;20321;-82
2022/09/11 00:55:02;;;;;;;85.20;31.03;;;13.30;99.90;;;;;;5020988;28;20657;-82
2022/09/11 00:57:32;;;;;;;75.90;30.87;;;13.40;99.90;;;;;;5013324;28;20238;-83
2022/09/11 01:00:01;;;;;;;89.80;30.10;;;13.40;99.90;;;;;;5026660;28;20254;-83
2022/09/11 01:02:31;;;;;;;77.07;31.07;;;13.40;99.90;;;;;;5026582;28;20219;-83
2022/09/11 01:04:58;;;;;;;57.50;28.67;;;13.40;99.90;;;;;;5021613;28;20224;-82
2022/09/11 01:07:26;;;;;;;68.90;29.13;;;13.50;99.90;;;;;;5022990;28;20311;-83
2022/09/11 01:09:54;;;;;;;71.73;29.53;;;13.50;99.90;;;;;;5025182;28;21330;-82
2022/09/11 01:12:28;;;;;;;56.43;26.23;;;13.50;99.90;;;;;;5024425;28;20277;-84
2022/09/11 01:15:00;;;;;;;43.93;24.03;;;13.50;99.90;;;;;;5020219;28;20219;-82
2022/09/11 01:17:33;;;;;;;73.07;27.73;;;13.50;99.90;;;;;;5017602;28;20232;-83
2022/09/11 01:20:22;;;;;;;53.20;26.47;;;13.50;99.90;;;;;;5034774;28;20231;-82
2022/09/11 01:23:19;;;;;;;57.57;25.27;;;13.60;99.90;;;;;;5014251;28;20231;-84
2022/09/11 01:26:06;;;;;;;64.77;24.97;;;13.60;99.90;;;;;;5005675;28;20227;-83
2022/09/11 01:28:38;;;;;;;45.07;22.87;;;13.60;99.90;;;;;;5018183;28;20253;-82
2022/09/11 01:31:10;;;;;;;58.93;23.60;;;13.60;99.90;;;;;;5013589;28;20219;-82
2022/09/11 01:33:43;;;;;;;46.57;23.00;;;13.60;99.90;;;;;;5019508;28;20222;-83
2022/09/11 01:36:16;;;;;;;59.00;24.03;;;13.60;99.90;;;;;;5021544;28;20454;-83
2022/09/11 01:38:46;;;;;;;63.40;25.67;;;13.60;99.90;;;;;;5017495;28;20222;-83
2022/09/11 01:41:18;;;;;;;57.60;24.23;;;13.60;99.90;;;;;;5018657;28;20212;-83
2022/09/11 01:43:55;;;;;;;54.87;24.30;;;13.60;99.90;;;;;;5013640;28;20219;-83
2022/09/11 01:46:24;;;;;;;45.40;22.67;;;13.60;99.90;;;;;;5018055;28;20233;-83
2022/09/11 01:49:02;;;;;;;42.17;22.37;;;13.60;99.90;;;;;;5012829;28;20249;-83
2022/09/11 01:51:32;;;;;;;58.07;24.50;;;13.60;99.90;;;;;;5003063;28;20324;-82
2022/09/11 01:54:02;;;;;;;53.90;25.10;;;13.60;99.90;;;;;;5029050;28;20247;-83
2022/09/11 01:56:33;;;;;;;63.40;24.23;;;13.60;99.90;;;;;;5019168;28;20309;-83
2022/09/11 01:59:05;;;;;;;53.47;24.20;;;13.70;99.90;;;;;;5025610;28;20663;-83
2022/09/11 02:01:35;;;;;;;57.67;25.07;;;13.70;99.90;;;;;;5029092;28;20308;-83
2022/09/11 02:04:09;;;;;;;55.13;25.27;;;13.70;99.90;;;;;;5013308;28;20237;-82
2022/09/11 02:06:43;;;;;;;42.03;23.00;;;13.70;99.90;;;;;;5013943;28;20220;-82
2022/09/11 02:09:15;;;;;;;41.97;22.53;;;13.70;99.90;;;;;;5032599;28;20419;-82
2022/09/11 02:11:44;;;;;;;46.37;21.40;;;13.80;99.90;;;;;;5015444;28;20285;-83
2022/09/11 02:14:19;;;;;;;74.67;22.77;;;13.80;99.90;;;;;;5017997;28;20231;-83
2022/09/11 02:16:50;;;;;;;56.60;20.30;;;13.80;99.90;;;;;;5030468;28;20300;-83
2022/09/11 02:19:19;;;;;;;47.23;20.87;;;13.80;99.90;;;;;;5015305;28;20224;-83
2022/09/11 02:21:47;;;;;;;65.30;21.77;;;13.80;99.90;;;;;;5016604;28;20222;-84
2022/09/11 02:24:15;;;;;;;54.03;19.97;;;13.80;99.90;;;;;;5018929;28;20245;-84
2022/09/11 02:26:45;;;;;;;50.83;20.17;;;13.80;99.90;;;;;;5015819;28;20226;-83
2022/09/11 02:29:14;;;;;;;40.50;20.03;;;13.80;99.90;;;;;;5015039;28;20231;-84
2022/09/11 02:31:42;;;;;;;54.57;19.10;;;13.80;99.90;;;;;;5014626;28;20230;-84
2022/09/11 02:34:10;;;;;;;52.80;20.43;;;13.80;99.90;;;;;;5015996;28;20271;-84
2022/09/11 02:36:53;;;;;;;59.60;19.87;;;13.70;99.90;;;;;;5032849;28;22032;-84
2022/09/11 02:39:35;;;;;;;62.47;20.17;;;13.70;99.90;;;;;;5016335;28;20231;-84
2022/09/11 02:42:15;;;;;;;63.53;20.40;;;13.70;99.90;;;;;;5015918;28;20293;-84
2022/09/11 02:44:57;;;;;;;46.03;19.97;;;13.70;99.90;;;;;;5019139;28;20246;-85
2022/09/11 02:47:36;;;;;;;67.67;21.57;;;13.60;99.90;;;;;;5017636;28;20237;-85
2022/09/11 02:50:13;;;;;;;51.77;20.53;;;13.60;99.90;;;;;;5011306;28;20223;-83
2022/09/11 02:52:47;;;;;;;48.73;21.07;;;13.60;99.90;;;;;;5015015;28;20218;-83
2022/09/11 02:55:22;;;;;;;48.43;20.47;;;13.70;99.90;;;;;;5025806;28;20881;-83
2022/09/11 02:57:57;;;;;;;47.90;20.87;;;13.70;99.90;;;;;;5018257;28;20238;-84
2022/09/11 03:00:25;;;;;;;56.90;21.37;;;13.70;99.90;;;;;;5032009;28;20396;-84
2022/09/11 03:02:53;;;;;;;60.67;18.90;;;13.70;99.90;;;;;;5018606;28;20222;-83
2022/09/11 03:05:22;;;;;;;51.50;19.50;;;13.70;99.90;;;;;;5015721;28;20326;-83
2022/09/11 03:07:48;;;;;;;57.53;19.97;;;13.70;99.90;;;;;;5020787;28;20285;-85
2022/09/11 03:10:15;;;;;;;58.30;17.97;;;13.70;99.90;;;;;;5021002;28;20767;-85
2022/09/11 03:12:42;;;;;;;52.83;17.13;;;13.70;99.90;;;;;;5049276;23;20257;-79
2022/09/11 03:15:11;;;;;;;55.23;18.20;;;13.70;99.90;;;;;;4976557;28;20508;-79
2022/09/11 03:17:40;;;;;;;82.33;19.10;;;13.70;99.90;;;;;;4966253;28;20230;-79
2022/09/11 03:20:09;;;;;;;71.17;18.77;;;13.70;99.90;;;;;;4977793;28;20311;-79
2022/09/11 03:22:36;;;;;;;62.60;18.80;;;13.70;99.90;;;;;;4985957;28;20804;-79
2022/09/11 03:25:05;;;;;;;41.17;17.23;;;13.60;99.90;;;;;;4985920;28;20726;-79
2022/09/11 03:27:32;;;;;;;67.40;18.83;;;13.60;99.90;;;;;;4969530;28;20365;-80
2022/09/11 03:29:59;;;;;;;57.67;18.40;;;13.60;99.90;;;;;;4963921;28;20221;-80
2022/09/11 03:32:26;;;;;;;58.40;18.07;;;13.60;99.90;;;;;;4987288;28;20703;-80
2022/09/11 03:34:56;;;;;;;56.23;18.40;;;13.60;99.90;;;;;;4987019;28;20259;-79
2022/09/11 03:37:23;;;;;;;71.23;18.67;;;13.60;99.90;;;;;;4970895;28;20224;-79
2022/09/11 03:39:50;;;;;;;33.00;14.47;;;13.60;99.90;;;;;;4990003;28;20565;-78
2022/09/11 03:42:16;;;;;;;64.73;17.87;;;13.60;99.90;;;;;;4984222;28;20775;-78
2022/09/11 03:44:44;;;;;;;75.13;17.60;;;13.60;99.90;;;;;;4970571;28;20663;-77
2022/09/11 03:47:11;;;;;;;50.77;16.57;;;13.60;99.90;;;;;;4957079;28;20315;-77
2022/09/11 03:49:38;;;;;;;83.80;18.00;;;13.50;99.90;;;;;;4974856;28;20792;-77
2022/09/11 03:52:07;;;;;;;57.23;16.17;;;13.50;99.90;;;;;;4970440;28;20303;-77
2022/09/11 03:54:34;;;;;;;73.00;17.13;;;13.50;99.90;;;;;;4961027;28;20243;-78
2022/09/11 03:57:01;;;;;;;50.63;15.97;;;13.50;99.90;;;;;;4965279;28;20217;-77
2022/09/11 03:59:28;;;;;;;58.70;16.43;;;13.50;99.90;;;;;;4980531;28;20244;-77
2022/09/11 04:01:55;;;;;;;43.60;15.03;;;13.50;99.90;;;;;;4968710;28;20252;-77
2022/09/11 04:04:21;;;;;;;47.30;16.37;;;13.40;99.90;;;;;;4975855;28;20241;-77
2022/09/11 04:06:48;;;;;;;40.93;16.70;;;13.40;99.90;;;;;;4976586;28;20829;-77
2022/09/11 04:09:17;;;;;;;74.63;16.57;;;13.40;99.90;;;;;;4978551;28;20220;-77
2022/09/11 04:11:43;;;;;;;43.87;14.30;;;13.40;99.90;;;;;;4979265;28;20577;-77
2022/09/11 04:14:18;;;;;;;47.97;14.73;;;13.40;99.90;;;;;;4960061;28;20318;-77
2022/09/11 04:16:45;;;;;;;38.20;14.77;;;13.40;99.90;;;;;;4983053;28;20214;-77
2022/09/11 04:19:12;;;;;;;43.37;14.00;;;13.40;99.90;;;;;;4980271;28;21191;-77
2022/09/11 04:21:41;;;;;;;52.83;14.17;;;13.40;99.90;;;;;;4974773;28;20316;-80
2022/09/11 04:24:07;;;;;;;49.20;13.20;;;13.40;99.90;;;;;;4968392;28;20227;-78
2022/09/11 04:26:36;;;;;;;50.97;15.57;;;13.40;99.90;;;;;;4980289;28;20224;-77
2022/09/11 04:29:09;;;;;;;36.77;13.33;;;13.40;99.90;;;;;;4963847;28;20222;-78
2022/09/11 04:31:37;;;;;;;42.23;13.10;;;13.40;99.90;;;;;;4961024;28;20341;-76
2022/09/11 04:34:05;;;;;;;34.70;12.67;;;13.40;99.90;;;;;;4979404;28;20228;-77
2022/09/11 04:36:35;;;;;;;27.00;12.63;;;13.40;99.90;;;;;;4953900;28;20865;-79
2022/09/11 04:39:02;;;;;;;37.20;13.77;;;13.40;99.90;;;;;;4967935;28;20268;-78
2022/09/11 04:41:29;;;;;;;26.93;12.43;;;13.40;99.90;;;;;;4964081;28;20280;-78
2022/09/11 04:44:01;;;;;;;36.47;12.27;;;13.40;99.90;;;;;;4982053;28;20734;-77
2022/09/11 04:46:28;;;;;;;40.23;12.63;;;13.40;99.90;;;;;;4989703;28;20692;-77
2022/09/11 04:48:58;;;;;;;28.47;11.83;;;13.40;99.90;;;;;;4970506;28;20227;-78
2022/09/11 04:51:27;;;;;;;40.27;14.43;;;13.30;99.90;;;;;;4968886;28;20338;-77
2022/09/11 04:53:56;;;;;;;36.53;13.07;;;13.30;99.90;;;;;;4977570;28;20229;-77
2022/09/11 04:56:24;;;;;;;26.97;12.00;;;13.30;99.90;;;;;;4982221;28;20227;-78
2022/09/11 04:58:56;;;;;;;28.27;12.53;;;13.40;99.90;;;;;;4973128;28;20228;-76
2022/09/11 05:01:28;;;;;;;27.80;12.63;;;13.40;99.90;;;;;;4970992;28;20393;-77
2022/09/11 05:03:59;;;;;;;32.83;12.77;;;13.40;99.90;;;;;;4969230;28;20250;-77
2022/09/11 05:06:29;;;;;;;25.47;12.00;;;13.40;99.90;;;;;;4972654;28;20258;-78
2022/09/11 05:09:00;;;;;;;39.00;14.23;;;13.50;99.90;;;;;;4973010;28;20234;-78
2022/09/11 05:11:29;;;;;;;28.23;14.43;;;13.50;99.90;;;;;;4990027;28;20711;-78
2022/09/11 05:13:58;;;;;;;37.07;12.97;;;13.50;99.90;;;;;;4983831;28;20235;-78
2022/09/11 05:16:28;;;;;;;23.03;12.37;;;13.50;99.90;;;;;;4989962;28;20220;-78
2022/09/11 05:18:55;;;;;;;25.70;12.00;;;13.50;99.90;;;;;;4969496;28;20218;-78
2022/09/11 05:21:25;;;;;;;28.77;12.07;;;13.50;99.90;;;;;;4984499;28;20335;-78
2022/09/11 05:23:54;;;;;;;27.83;13.17;;;13.50;99.90;;;;;;4977927;28;20237;-78
2022/09/11 05:26:23;;;;;;;31.07;13.23;;;13.50;99.90;;;;;;4988602;28;20318;-78
2022/09/11 05:28:54;;;;;;;34.33;13.00;;;13.60;99.90;;;;;;4992839;28;20228;-78
2022/09/11 05:31:21;;;;;;;43.70;14.67;;;13.60;99.90;;;;;;4977704;28;20301;-78
2022/09/11 05:33:50;;;;;;;30.97;14.53;;;13.60;99.90;;;;;;4985186;28;20668;-78
2022/09/11 05:36:17;;;;;;;41.30;14.47;;;13.70;99.90;;;;;;4970334;28;20222;-78
2022/09/11 05:38:45;;;;;;;27.03;13.93;;;13.70;99.90;;;;;;4985990;28;20223;-78
2022/09/11 05:41:14;;;;;;;35.30;15.00;;;13.80;99.90;;;;;;4987022;28;20306;-78
2022/09/11 05:43:42;;;;;;;32.40;14.63;;;13.80;99.90;;;;;;4977932;28;20277;-78
2022/09/11 05:46:13;;;;;;;31.13;15.03;;;13.80;99.90;;;;;;4947828;28;20312;-78
2022/09/11 05:48:40;;;;;;;28.97;15.63;;;13.90;99.90;;;;;;4969352;28;20513;-78
2022/09/11 05:51:12;;;;;;;28.33;15.80;;;13.90;99.90;;;;;;4984806;28;20578;-78
2022/09/11 05:53:42;;;;;;;29.33;15.73;;;14.00;99.90;;;;;;4987495;28;20236;-78
2022/09/11 05:56:14;;;;;;;28.07;14.60;;;14.00;99.90;;;;;;4990347;28;20320;-78
2022/09/11 05:58:45;;;;;;;26.70;15.30;;;14.10;99.90;;;;;;4967932;28;20264;-78
2022/09/11 06:01:14;;;;;;;28.33;15.33;;;14.10;99.90;;;;;;4974224;28;20245;-78
2022/09/11 06:03:43;;;;;;;29.07;16.67;;;14.20;99.90;;;;;;4970246;28;20869;-78
2022/09/11 06:06:13;;;;;;;27.10;15.60;;;14.20;99.90;;;;;;4987130;28;20221;-77
2022/09/11 06:08:42;;;;;;;30.77;17.50;;;14.30;99.90;;;;;;4987681;28;20241;-78
2022/09/11 06:11:12;;;;;;;27.93;16.57;;;14.30;99.90;;;;;;4969890;28;20805;-79
2022/09/11 06:13:40;;;;;;;30.50;17.43;;;14.30;99.90;;;;;;4986840;28;20232;-78
2022/09/11 06:16:09;;;;;;;26.63;16.37;;;14.40;99.90;;;;;;4964038;28;20531;-78
2022/09/11 06:18:36;;;;;;;24.33;14.77;;;14.40;99.90;;;;;;4990329;28;20232;-79
2022/09/11 06:21:06;;;;;;;29.67;17.80;;;14.50;99.90;;;;;;4971419;28;20815;-79
2022/09/11 06:23:41;;;;;;;27.20;17.30;;;14.50;99.90;;;;;;4984428;28;20305;-78
2022/09/11 06:26:10;;;;;;;24.40;15.67;;;14.60;99.90;;;;;;4990388;28;20234;-79
2022/09/11 06:28:40;;;;;;;25.10;15.77;;;14.70;99.90;;;;;;4988876;28;20244;-78
2022/09/11 06:31:10;;;;;;;22.53;15.47;;;14.80;99.90;;;;;;4972077;28;20857;-79
2022/09/11 06:33:38;;;;;;;21.90;14.03;;;14.90;99.90;;;;;;4989712;28;20265;-80
2022/09/11 06:36:07;;;;;;;21.43;14.60;;;15.00;99.90;;;;;;4972405;28;20311;-78
2022/09/11 06:38:34;;;;;;;21.90;14.57;;;15.10;99.90;;;;;;4978714;28;20220;-79
2022/09/11 06:41:04;;;;;;;19.57;13.70;;;15.10;99.90;;;;;;4991508;28;20605;-79
2022/09/11 06:43:35;;;;;;;20.20;13.10;;;15.20;99.90;;;;;;4961733;28;20280;-78
2022/09/11 06:46:06;;;;;;;20.43;13.77;;;15.30;99.90;;;;;;4971154;28;20307;-78
2022/09/11 06:48:33;;;;;;;18.30;13.40;;;15.30;99.90;;;;;;4985759;28;20222;-81
2022/09/11 06:51:04;;;;;;;16.47;12.33;;;15.40;99.90;;;;;;4966949;28;20331;-80
2022/09/11 06:53:33;;;;;;;19.23;12.90;;;15.40;99.90;;;;;;4985160;28;20705;-80
2022/09/11 06:56:05;;;;;;;16.70;12.40;;;15.50;99.90;;;;;;4972549;28;20407;-79
2022/09/11 06:58:33;;;;;;;16.63;12.60;;;15.50;99.90;;;;;;4974225;28;20228;-78
2022/09/11 07:01:02;;;;;;;14.23;11.17;;;15.50;99.90;;;;;;4961547;28;20242;-81
2022/09/11 07:03:30;;;;;;;14.17;10.77;;;15.60;99.90;;;;;;4979126;28;20622;-83
2022/09/11 07:05:57;;;;;;;15.53;10.60;;;15.60;99.90;;;;;;4984564;28;20220;-80
2022/09/11 07:08:24;;;;;;;11.90;9.77;;;15.60;99.90;;;;;;4989211;28;20339;-79
2022/09/11 07:10:51;;;;;;;12.83;9.73;;;15.60;99.90;;;;;;4960899;28;20240;-82
2022/09/11 07:13:23;;;;;;;12.37;10.30;;;15.50;99.90;;;;;;4992654;28;20439;-81
2022/09/11 07:15:59;;;;;;;11.07;9.27;;;15.50;99.90;;;;;;4985252;28;20653;-79
2022/09/11 07:18:25;;;;;;;14.03;9.90;;;15.50;99.90;;;;;;4964919;28;20311;-79
2022/09/11 07:20:52;;;;;;;13.70;9.67;;;15.50;99.90;;;;;;4969297;28;20289;-79
2022/09/11 07:23:19;;;;;;;10.90;9.47;;;15.40;99.90;;;;;;4984916;28;20254;-79
2022/09/11 07:25:47;;;;;;;11.37;9.53;;;15.40;99.90;;;;;;4987714;28;20604;-79
2022/09/11 07:28:14;;;;;;;10.73;9.63;;;15.40;99.90;;;;;;4988362;28;20312;-76
2022/09/11 07:30:44;;;;;;;12.03;10.07;;;15.40;99.90;;;;;;4962057;28;20300;-78
2022/09/11 07:33:11;;;;;;;11.87;10.00;;;15.50;99.90;;;;;;4980262;28;20986;-78
2022/09/11 07:35:40;;;;;;;10.43;9.00;;;15.50;99.90;;;;;;4970106;28;20226;-78
2022/09/11 07:38:06;;;;;;;9.57;8.50;;;15.60;99.90;;;;;;4969360;28;20322;-79
2022/09/11 07:40:36;;;;;;;10.57;7.80;;;15.80;99.90;;;;;;4975987;28;21048;-79
2022/09/11 07:43:03;;;;;;;7.57;6.43;;;15.90;99.90;;;;;;4965877;28;20228;-79
2022/09/11 07:45:31;;;;;;;8.17;7.23;;;16.10;99.90;;;;;;4968807;28;20256;-80
2022/09/11 07:48:01;;;;;;;6.80;6.10;;;16.20;99.90;;;;;;4988625;28;20224;-81
2022/09/11 07:50:29;;;;;;;6.47;5.87;;;16.30;99.90;;;;;;4978681;28;20230;-80
2022/09/11 07:52:55;;;;;;;5.33;4.83;;;16.50;99.90;;;;;;4985108;28;20305;-77
2022/09/11 07:55:22;;;;;;;5.30;4.80;;;16.50;99.90;;;;;;4987327;28;20249;-77
2022/09/11 07:57:51;;;;;;;5.57;5.07;;;16.60;99.90;;;;;;4966585;28;20229;-76
2022/09/11 08:00:18;;;;;;;6.73;5.53;;;16.70;99.90;;;;;;4965504;28;20692;-76
2022/09/11 08:02:48;;;;;;;7.23;5.97;;;16.70;99.90;;;;;;4980034;28;20666;-76
2022/09/11 08:05:20;;;;;;;6.30;5.70;;;16.70;99.90;;;;;;4969164;28;20233;-77
2022/09/11 08:07:47;;;;;;;6.00;5.33;;;16.70;99.90;;;;;;4973139;28;20218;-77
2022/09/11 08:10:14;;;;;;;6.13;5.33;;;16.70;99.90;;;;;;4980769;28;20230;-77
2022/09/11 08:12:41;;;;;;;6.33;5.70;;;16.60;99.90;;;;;;4987405;28;20238;-77
2022/09/11 08:15:09;;;;;;;5.93;5.33;;;16.60;99.90;;;;;;4990618;28;20366;-77
2022/09/11 08:17:36;;;;;;;5.47;4.97;;;16.60;99.90;;;;;;4982419;28;20722;-77
2022/09/11 08:20:03;;;;;;;6.70;4.57;;;16.70;99.90;;;;;;4973788;28;20240;-77
2022/09/11 08:22:31;;;;;;;7.03;4.67;;;16.70;99.90;;;;;;4990318;28;20226;-77
2022/09/11 08:24:58;;;;;;;5.57;4.57;;;16.70;99.90;;;;;;4996587;28;20309;-77
2022/09/11 08:27:25;;;;;;;7.63;4.83;;;16.80;99.90;;;;;;4971767;28;20279;-77
2022/09/11 08:29:52;;;;;;;5.93;5.10;;;16.80;99.90;;;;;;4984454;28;20221;-77
2022/09/11 08:32:22;;;;;;;4.63;4.23;;;16.80;99.90;;;;;;4967286;28;20262;-77
2022/09/11 08:34:49;;;;;;;4.87;4.40;;;17.00;99.90;;;;;;4975585;28;20228;-77
2022/09/11 08:37:17;;;;;;;4.83;4.43;;;17.20;99.90;;;;;;4992704;28;20258;-77
2022/09/11 08:39:46;;;;;;;5.30;4.80;;;17.30;99.90;;;;;;4991622;28;20382;-76
2022/09/11 08:42:16;;;;;;;5.67;5.17;;;17.40;99.90;;;;;;4987695;28;20256;-77
2022/09/11 08:44:47;;;;;;;5.60;4.93;;;17.50;99.90;;;;;;4976210;28;20248;-77
2022/09/11 08:47:25;;;;;;;5.60;5.10;;;17.50;99.90;;;;;;4981642;28;20233;-77
2022/09/11 08:50:01;;;;;;;4.97;4.30;;;17.40;99.90;;;;;;4965627;28;20287;-77
2022/09/11 08:52:29;;;;;;;4.13;3.73;;;17.30;99.90;;;;;;4968269;28;20310;-76
2022/09/11 08:54:59;;;;;;;4.97;4.10;;;17.30;99.90;;;;;;4986763;28;20845;-77
2022/09/11 08:57:39;;;;;;;4.33;3.93;;;17.20;99.90;;;;;;4963211;28;20228;-77
2022/09/11 09:00:18;;;;;;;3.80;3.37;;;17.30;99.90;;;;;;4971048;28;20230;-77
2022/09/11 09:03:15;;;;;;;3.20;2.90;;;17.40;99.90;;;;;;4967978;28;20217;-77
2022/09/11 09:05:50;;;;;;;3.40;3.10;;;17.70;99.90;;;;;;4988646;28;20220;-79
2022/09/11 09:08:43;;;;;;;3.77;2.87;;;18.20;99.90;;;;;;4980446;28;20301;-79
2022/09/11 09:11:21;;;;;;;3.60;3.20;;;18.60;99.90;;;;;;4994349;28;20208;-78
2022/09/11 09:14:07;;;;;;;3.03;2.83;;;18.90;99.90;;;;;;4988687;28;20293;-78
2022/09/11 09:16:47;;;;;;;3.10;2.80;;;19.10;99.90;;;;;;4966481;28;20662;-78
2022/09/11 09:19:20;;;;;;;2.93;2.73;;;19.20;99.90;;;;;;4974664;28;20234;-79
2022/09/11 09:21:58;;;;;;;3.10;2.80;;;19.20;99.90;;;;;;4993051;28;20236;-79
2022/09/11 09:24:29;;;;;;;4.33;3.03;;;19.20;99.90;;;;;;4974073;28;20594;-83
2022/09/11 09:26:57;;;;;;;3.40;2.87;;;19.30;99.90;;;;;;4984048;28;20311;-82
2022/09/11 09:29:29;;;;;;;3.20;2.90;;;19.40;99.90;;;;;;4982773;28;20353;-83
2022/09/11 09:32:01;;;;;;;2.93;2.70;;;19.90;99.90;;;;;;4971017;28;20594;-82
2022/09/11 09:34:33;;;;;;;3.40;2.50;;;20.50;99.90;;;;;;4980582;28;20233;-83
2022/09/11 09:37:06;;;;;;;2.72;2.40;;;21.10;99.90;;;;;;4989848;28;20229;-83
2022/09/11 09:39:36;;;;;;;1.98;1.88;;;21.90;99.90;;;;;;4994074;28;20329;-82
2022/09/11 09:42:15;;;;;;;2.35;2.15;;;22.70;99.90;;;;;;4973756;28;20240;-83
2022/09/11 09:45:02;;;;;;;1.90;1.80;;;23.30;99.90;;;;;;4973347;28;20344;-83
2022/09/11 09:47:29;;;;;;;3.53;2.10;;;23.70;99.90;;;;;;4967545;28;20234;-83
2022/09/11 09:49:58;;;;;;;3.45;2.30;;;23.80;99.90;;;;;;4968638;28;20952;-83
2022/09/11 09:52:30;;;;;;;2.13;1.92;;;23.80;99.70;;;;;;4983877;28;20237;-84
2022/09/11 09:54:59;;;;;;;1.95;1.65;;;23.70;99.20;;;;;;4986815;28;20316;-79
2022/09/11 09:57:31;;;;;;;3.03;2.22;;;23.40;99.50;;;;;;4992370;28;20230;-80
2022/09/11 10:00:04;;;;;;;2.53;2.22;;;23.20;98.90;;;;;;4983733;28;20226;-80
2022/09/11 10:02:40;;;;;;;1.73;1.63;;;22.90;99.00;;;;;;4986151;28;20224;-80
2022/09/11 10:05:17;;;;;;;2.30;1.88;;;22.70;99.60;;;;;;4983793;28;20284;-80
2022/09/11 10:07:49;;;;;;;2.45;2.25;;;22.50;99.30;;;;;;4989174;28;20229;-80
2022/09/11 10:10:25;;;;;;;1.63;1.52;;;22.40;99.60;;;;;;4991299;28;20325;-80
2022/09/11 10:12:54;;;;;;;2.20;1.60;;;22.40;99.20;;;;;;4992485;28;20230;-81
2022/09/11 10:15:24;;;;;;;2.08;1.67;;;22.50;99.90;;;;;;4993566;28;20761;-81
2022/09/11 10:17:52;;;;;;;2.08;1.55;;;22.70;99.90;;;;;;4996152;28;20224;-81
2022/09/11 10:20:25;;;;;;;2.15;1.40;;;23.10;99.90;;;;;;4994982;28;20225;-81
2022/09/11 10:22:53;;;;;;;1.45;1.00;;;23.50;99.20;;;;;;4994476;28;20345;-81
2022/09/11 10:25:25;;;;;;;2.03;1.42;;;24.00;99.20;;;;;;4991687;28;20284;-81
2022/09/11 10:28:02;;;;;;;1.52;1.42;;;24.60;98.80;;;;;;4995015;28;20901;-82
2022/09/11 10:30:34;;;;;;;2.00;1.23;;;25.10;97.20;;;;;;4981649;28;20239;-81
2022/09/11 10:33:05;;;;;;;1.50;1.38;;;25.70;96.80;;;;;;4986887;28;20696;-81
2022/09/11 10:35:34;;;;;;;2.13;1.30;;;26.10;96.50;;;;;;4990773;28;20222;-81
2022/09/11 10:38:16;;;;;;;1.40;1.10;;;26.40;95.50;;;;;;4997262;28;20226;-81
2022/09/11 10:40:53;;;;;;;1.77;1.30;;;26.70;94.40;;;;;;4991694;28;20246;-81
2022/09/11 10:43:27;;;;;;;1.20;1.10;;;26.90;94.30;;;;;;4994479;28;20240;-81
2022/09/11 10:46:05;;;;;;;1.33;0.95;;;27.20;92.00;;;;;;4994109;28;20226;-81
2022/09/11 10:48:35;;;;;;;1.30;1.13;;;27.40;92.40;;;;;;4992265;28;20253;-82
2022/09/11 10:51:10;;;;;;;1.30;1.20;;;27.60;93.10;;;;;;4998607;28;20226;-81
2022/09/11 10:53:47;;;;;;;1.38;1.00;;;27.70;92.20;;;;;;4991094;28;20240;-81
2022/09/11 10:56:15;;;;;;;1.77;1.20;;;27.70;91.40;;;;;;4993729;28;20234;-81
2022/09/11 10:58:46;;;;;;;1.02;0.90;;;27.60;91.30;;;;;;4998032;28;20228;-81
2022/09/11 11:01:13;;;;;;;1.30;1.00;;;27.30;90.40;;;;;;4978397;28;20222;-81
2022/09/11 11:03:40;;;;;;;1.20;1.10;;;26.90;90.80;;;;;;4989165;28;20286;-83
2022/09/11 11:06:22;;;;;;;1.00;0.90;;;26.70;90.90;;;;;;4976221;28;20226;-81
2022/09/11 11:09:21;;;;;;;1.95;1.27;;;26.60;91.00;;;;;;4998575;28;20606;-81
2022/09/11 11:12:06;;;;;;;1.85;1.40;;;26.70;90.50;;;;;;4988438;28;20237;-81
2022/09/11 11:14:57;;;;;;;1.23;1.00;;;26.90;90.40;;;;;;4996972;28;20229;-81
2022/09/11 11:17:32;;;;;;;1.58;1.00;;;27.30;90.80;;;;;;4987800;28;20238;-81
2022/09/11 11:20:11;;;;;;;1.17;1.00;;;27.50;90.40;;;;;;4995348;28;20540;-81
2022/09/11 11:23:06;;;;;;;0.80;0.80;;;27.60;89.00;;;;;;4989475;28;20325;-81
2022/09/11 11:25:43;;;;;;;0.88;0.80;;;27.50;87.90;;;;;;4989084;28;20230;-81
2022/09/11 11:28:30;;;;;;;1.13;0.90;;;27.20;86.50;;;;;;4971643;28;20226;-81
2022/09/11 11:31:14;;;;;;;1.02;0.90;;;26.80;87.20;;;;;;4991244;28;20310;-84
2022/09/11 11:33:55;;;;;;;1.20;1.10;;;26.30;89.00;;;;;;4990913;28;20795;-83
2022/09/11 11:36:28;;;;;;;2.33;1.33;;;25.90;88.00;;;;;;4984900;28;20221;-81
2022/09/11 11:39:00;;;;;;;1.50;1.15;;;25.40;89.30;;;;;;4998488;28;20652;-81
2022/09/11 11:41:32;;;;;;;1.08;0.98;;;25.10;89.80;;;;;;5001432;28;20228;-81
2022/09/11 11:44:03;;;;;;;1.40;1.10;;;24.80;90.10;;;;;;4981630;28;20245;-81
2022/09/11 11:46:37;;;;;;;1.30;1.02;;;24.50;90.10;;;;;;4996435;28;20222;-80
2022/09/11 11:49:10;;;;;;;0.80;0.80;;;24.30;90.70;;;;;;4991195;28;20764;-83
2022/09/11 11:51:46;;;;;;;1.65;1.13;;;24.00;91.00;;;;;;4982780;28;20380;-82
2022/09/11 11:54:19;;;;;;;0.85;0.82;;;23.90;91.20;;;;;;4999339;28;20225;-83
2022/09/11 11:56:49;;;;;;;1.27;1.05;;;23.80;91.40;;;;;;5002770;28;20879;-83
2022/09/11 11:59:22;;;;;;;1.52;1.15;;;23.90;92.30;;;;;;4987846;28;20264;-83
2022/09/11 12:01:55;;;;;;;1.17;1.00;;;24.00;92.40;;;;;;4999354;28;20234;-82
2022/09/11 12:04:34;;;;;;;1.00;0.90;;;24.30;91.90;;;;;;4988857;28;20229;-82
2022/09/11 12:07:03;;;;;;;2.67;1.05;;;24.50;91.50;;;;;;5000080;28;21113;-83
2022/09/11 12:09:30;;;;;;;0.68;0.68;;;24.70;91.50;;;;;;4997710;28;20228;-82
2022/09/11 12:12:04;;;;;;;3.00;1.00;;;24.80;91.30;;;;;;4995553;28;20268;-81
2022/09/11 12:14:33;;;;;;;1.55;0.63;;;24.90;90.50;;;;;;4993223;28;20226;-80
2022/09/11 12:17:18;;;;;;;1.10;0.60;;;25.00;89.50;;;;;;4997238;28;20228;-81
2022/09/11 12:20:13;;;;;;;1.25;0.60;;;25.00;88.60;;;;;;4998602;28;20577;-83
2022/09/11 12:22:43;;;;;;;3.30;0.70;;;24.90;87.60;;;;;;4993025;28;20463;-81
2022/09/11 12:25:43;;;;;;;1.15;0.73;;;24.90;88.30;;;;;;4995370;28;20290;-80
2022/09/11 12:28:21;;;;;;;1.17;0.80;;;24.70;87.70;;;;;;4995231;28;20955;-80
2022/09/11 12:31:04;;;;;;;1.52;0.82;;;24.60;87.10;;;;;;4997171;28;20217;-81
2022/09/11 12:33:55;;;;;;;0.93;0.80;;;24.40;89.10;;;;;;4992266;28;20272;-80
2022/09/11 12:36:32;;;;;;;2.40;0.80;;;24.20;89.40;;;;;;4986416;28;20758;-82
2022/09/11 12:39:04;;;;;;;2.05;0.73;;;24.00;89.30;;;;;;4982863;28;20217;-80
2022/09/11 12:41:33;;;;;;;1.23;0.80;;;23.70;89.60;;;;;;4999482;28;20230;-81
2022/09/11 12:44:01;;;;;;;0.90;0.63;;;23.50;90.20;;;;;;4996909;28;20221;-82
2022/09/11 12:47:07;;;;;;;0.68;0.68;;;23.30;90.60;;;;;;4990313;28;20221;-82
2022/09/11 12:49:36;;;;;;;2.42;0.65;;;23.10;90.30;;;;;;4979636;28;20217;-81
2022/09/11 12:52:06;;;;;;;0.68;0.68;;;22.90;90.60;;;;;;4990568;28;20250;-81
2022/09/11 12:54:38;;;;;;;0.80;0.80;;;22.70;90.80;;;;;;5003145;28;20247;-81
2022/09/11 12:57:09;;;;;;;1.75;1.00;;;22.60;91.10;;;;;;4996791;28;20222;-81